createdAt,value
2017-12-21T00:01:11.994Z,32.03
2017-12-21T00:03:40.311Z,31.20
2017-12-21T00:06:07.784Z,31.80
2017-12-21T00:08:35.540Z,30.70
2017-12-21T00:11:03.036Z,34.03
2017-12-21T00:13:30.769Z,39.03
2017-12-21T00:15:58.255Z,37.33
2017-12-21T00:18:25.846Z,46.47
2017-12-21T00:20:54.119Z,48.97
2017-12-21T00:23:21.585Z,38.93
2017-12-21T00:25:49.058Z,43.40
2017-12-21T00:28:17.354Z,41.93
2017-12-21T00:30:44.822Z,44.47
2017-12-21T00:33:12.309Z,46.37
2017-12-21T00:35:39.782Z,28.60
2017-12-21T00:38:07.263Z,40.13
2017-12-21T00:40:35.522Z,38.57
2017-12-21T00:43:03.004Z,34.60
2017-12-21T00:45:31.260Z,31.27
2017-12-21T00:47:58.883Z,41.67
2017-12-21T00:50:26.369Z,37.33
2017-12-21T00:52:53.829Z,26.17
2017-12-21T00:55:22.838Z,36.03
2017-12-21T00:57:50.298Z,28.50
2017-12-21T01:00:17.846Z,30.43
2017-12-21T01:02:45.355Z,27.73
2017-12-21T01:05:12.819Z,26.17
2017-12-21T01:07:40.427Z,29.93
2017-12-21T01:10:08.704Z,22.67
2017-12-21T01:12:36.250Z,22.70
2017-12-21T01:15:03.765Z,22.40
2017-12-21T01:17:31.352Z,20.00
2017-12-21T01:19:58.843Z,29.20
2017-12-21T01:22:26.342Z,22.50
2017-12-21T01:24:53.839Z,27.80
2017-12-21T01:27:21.418Z,30.97
2017-12-21T01:29:49.643Z,52.00
2017-12-21T01:32:17.237Z,42.47
2017-12-21T01:34:44.709Z,29.63
2017-12-21T01:37:12.354Z,33.67
2017-12-21T01:39:39.833Z,32.60
2017-12-21T01:42:08.399Z,49.43
2017-12-21T01:44:35.971Z,32.83
2017-12-21T01:47:03.455Z,41.10
2017-12-21T01:49:31.742Z,39.57
2017-12-21T01:51:59.207Z,46.83
2017-12-21T01:54:27.479Z,46.37
2017-12-21T01:56:54.919Z,55.53
2017-12-21T01:59:22.430Z,59.40
2017-12-21T02:01:49.906Z,66.63
2017-12-21T02:04:17.390Z,51.20
2017-12-21T02:06:44.859Z,81.33
2017-12-21T02:09:12.322Z,70.20
2017-12-21T02:11:40.597Z,85.90
2017-12-21T02:14:08.854Z,76.40
2017-12-21T02:16:36.338Z,81.67
2017-12-21T02:19:04.570Z,78.10
2017-12-21T02:21:32.046Z,80.03
2017-12-21T02:23:59.503Z,93.67
2017-12-21T02:26:26.974Z,77.30
2017-12-21T02:28:54.443Z,101.27
2017-12-21T02:31:22.924Z,108.20
2017-12-21T02:33:51.192Z,94.87
2017-12-21T02:36:18.760Z,73.60
2017-12-21T02:38:46.271Z,70.60
2017-12-21T02:41:13.742Z,80.23
2017-12-21T02:43:41.278Z,107.37
2017-12-21T02:46:08.751Z,104.80
2017-12-21T02:48:36.319Z,87.83
2017-12-21T02:51:03.847Z,100.00
2017-12-21T02:53:32.437Z,97.50
2017-12-21T02:55:59.913Z,88.90
2017-12-21T02:58:27.371Z,87.17
2017-12-21T03:00:54.860Z,91.80
2017-12-21T03:03:22.337Z,109.53
2017-12-21T03:05:49.891Z,94.50
2017-12-21T03:08:18.911Z,115.97
2017-12-21T03:10:47.147Z,113.93
2017-12-21T03:13:14.634Z,114.93
2017-12-21T03:15:42.857Z,91.90
2017-12-21T03:18:10.416Z,88.40
2017-12-21T03:20:37.871Z,81.97
2017-12-21T03:23:05.358Z,94.40
2017-12-21T03:25:32.845Z,84.03
2017-12-21T03:28:00.334Z,78.37
2017-12-21T03:30:27.811Z,74.87
2017-12-21T03:32:55.329Z,74.73
2017-12-21T03:35:23.609Z,56.53
2017-12-21T03:37:53.067Z,62.17
2017-12-21T03:40:20.538Z,72.83
2017-12-21T03:42:48.007Z,58.37
2017-12-21T03:45:15.486Z,56.13
2017-12-21T03:47:43.782Z,57.80
2017-12-21T03:50:11.456Z,47.43
2017-12-21T03:52:39.171Z,57.83
2017-12-21T03:55:06.672Z,68.67
2017-12-21T03:57:34.176Z,71.57
2017-12-21T04:00:01.647Z,62.03
2017-12-21T04:02:29.610Z,57.50
2017-12-21T04:04:57.062Z,57.57
2017-12-21T04:07:24.548Z,58.27
2017-12-21T04:09:52.795Z,55.67
2017-12-21T04:12:20.378Z,57.20
2017-12-21T04:14:48.644Z,55.50
2017-12-21T04:17:17.631Z,47.60
2017-12-21T04:19:45.099Z,54.53
2017-12-21T04:22:12.562Z,43.43
2017-12-21T04:24:40.030Z,56.23
2017-12-21T04:27:08.277Z,50.53
2017-12-21T04:29:35.748Z,57.40
2017-12-21T04:32:03.397Z,64.90
2017-12-21T04:34:30.871Z,53.97
2017-12-21T04:36:58.408Z,50.70
2017-12-21T04:39:25.978Z,67.63
2017-12-21T04:41:53.466Z,63.20
2017-12-21T04:44:21.795Z,66.97
2017-12-21T04:46:49.354Z,75.80
2017-12-21T04:49:16.831Z,74.20
2017-12-21T04:51:44.348Z,74.70
2017-12-21T04:54:11.847Z,96.97
2017-12-21T04:56:39.314Z,80.47
2017-12-21T04:59:06.808Z,87.97
2017-12-21T05:01:35.079Z,90.10
2017-12-21T05:04:03.310Z,97.63
2017-12-21T05:06:30.786Z,118.17
2017-12-21T05:08:58.242Z,128.53
2017-12-21T05:11:26.515Z,139.10
2017-12-21T05:13:54.120Z,120.70
2017-12-21T05:16:21.602Z,127.50
2017-12-21T05:18:49.851Z,163.43
2017-12-21T05:21:17.347Z,167.17
2017-12-21T05:23:44.825Z,127.00
2017-12-21T05:26:12.290Z,164.20
2017-12-21T05:28:39.794Z,143.93
2017-12-21T05:31:08.038Z,131.53
2017-12-21T05:33:35.844Z,121.20
2017-12-21T05:36:03.330Z,156.40
2017-12-21T05:38:30.812Z,121.43
2017-12-21T05:40:58.315Z,144.50
2017-12-21T05:43:27.294Z,130.63
2017-12-21T05:45:55.576Z,141.77
2017-12-21T05:48:24.024Z,143.37
2017-12-21T05:50:51.567Z,121.43
2017-12-21T05:53:20.422Z,123.57
2017-12-21T05:55:48.036Z,113.77
2017-12-21T05:58:15.669Z,97.00
2017-12-21T06:00:43.537Z,100.47
2017-12-21T06:03:11.274Z,104.40
2017-12-21T06:05:38.768Z,101.97
2017-12-21T06:08:06.270Z,92.00
2017-12-21T06:10:34.971Z,96.27
2017-12-21T06:13:03.221Z,80.87
2017-12-21T06:15:30.722Z,85.47
2017-12-21T06:17:58.228Z,84.83
2017-12-21T06:20:25.686Z,81.07
2017-12-21T06:22:54.679Z,98.63
2017-12-21T06:25:22.154Z,79.23
2017-12-21T06:27:49.693Z,74.73
2017-12-21T06:30:17.600Z,73.30
2017-12-21T06:32:45.227Z,62.20
2017-12-21T06:35:12.705Z,71.70
2017-12-21T06:37:40.172Z,75.50
2017-12-21T06:40:08.484Z,69.77
2017-12-21T06:42:36.705Z,66.10
2017-12-21T06:45:04.225Z,77.17
2017-12-21T06:47:31.766Z,65.80
2017-12-21T06:49:59.383Z,64.97
2017-12-21T06:52:26.857Z,66.33
2017-12-21T06:54:54.397Z,57.03
2017-12-21T06:57:21.870Z,72.10
2017-12-21T06:59:49.456Z,47.57
2017-12-21T07:02:17.020Z,62.13
2017-12-21T07:04:44.550Z,55.80
2017-12-21T07:07:12.001Z,68.97
2017-12-21T07:09:40.251Z,65.80
2017-12-21T07:12:07.739Z,51.13
2017-12-21T07:14:35.228Z,62.10
2017-12-21T07:17:03.463Z,53.60
2017-12-21T07:19:31.850Z,50.80
2017-12-21T07:21:59.307Z,45.63
2017-12-21T07:24:28.301Z,37.17
2017-12-21T07:26:55.780Z,43.93
2017-12-21T07:29:24.095Z,44.53
2017-12-21T07:31:51.574Z,44.03
2017-12-21T07:34:19.140Z,53.03
2017-12-21T07:36:46.795Z,44.17
2017-12-21T07:39:14.304Z,37.17
2017-12-21T07:41:42.542Z,31.73
2017-12-21T07:44:09.994Z,51.87
2017-12-21T07:46:37.463Z,38.37
2017-12-21T07:49:04.920Z,42.60
2017-12-21T07:51:32.420Z,33.53
2017-12-21T07:54:00.678Z,39.97
2017-12-21T07:56:28.179Z,36.07
2017-12-21T07:58:55.784Z,37.30
2017-12-21T08:01:23.247Z,35.13
2017-12-21T08:03:52.298Z,36.83
2017-12-21T08:06:19.767Z,39.30
2017-12-21T08:08:47.296Z,53.10
2017-12-21T08:11:15.602Z,42.60
2017-12-21T08:13:43.105Z,46.00
2017-12-21T08:16:10.606Z,53.33
2017-12-21T08:18:38.082Z,45.83
2017-12-21T08:21:05.563Z,48.90
2017-12-21T08:23:33.041Z,48.10
2017-12-21T08:26:00.512Z,42.33
2017-12-21T08:28:28.769Z,62.03
2017-12-21T08:30:56.297Z,34.70
2017-12-21T08:33:23.799Z,39.47
2017-12-21T08:35:51.287Z,38.90
2017-12-21T08:38:18.785Z,26.37
2017-12-21T08:40:46.270Z,30.63
2017-12-21T08:43:13.928Z,34.70
2017-12-21T08:45:42.222Z,34.10
2017-12-21T08:48:10.470Z,30.50
2017-12-21T08:50:37.988Z,28.20
2017-12-21T08:53:05.478Z,27.40
2017-12-21T08:55:32.978Z,33.50
2017-12-21T08:58:00.449Z,23.00
2017-12-21T09:00:27.921Z,29.80
2017-12-21T09:02:55.392Z,26.70
2017-12-21T09:05:22.986Z,24.33
2017-12-21T09:07:50.462Z,23.17
2017-12-21T09:10:18.071Z,21.60
2017-12-21T09:12:45.648Z,25.73
2017-12-21T09:15:13.403Z,29.33
2017-12-21T09:17:41.002Z,18.93
2017-12-21T09:20:08.933Z,12.10
2017-12-21T09:22:36.745Z,16.23
2017-12-21T09:25:05.870Z,24.77
2017-12-21T09:27:34.307Z,20.00
2017-12-21T09:30:02.027Z,21.97
2017-12-21T09:32:31.586Z,18.67
2017-12-21T09:34:59.107Z,22.30
2017-12-21T09:37:26.577Z,18.73
2017-12-21T09:39:54.350Z,20.20
2017-12-21T09:42:22.079Z,17.87
2017-12-21T09:44:50.427Z,20.90
2017-12-21T09:47:17.900Z,19.27
2017-12-21T09:49:46.156Z,13.97
2017-12-21T09:52:13.828Z,19.73
2017-12-21T09:54:41.402Z,15.57
2017-12-21T09:57:09.882Z,22.50
2017-12-21T09:59:38.290Z,14.37
2017-12-21T10:02:05.769Z,20.43
2017-12-21T10:04:33.470Z,20.47
2017-12-21T10:07:01.727Z,18.30
2017-12-21T10:09:29.555Z,21.13
2017-12-21T10:11:57.040Z,19.43
2017-12-21T10:14:24.498Z,18.67
2017-12-21T10:16:52.064Z,20.27
2017-12-21T10:19:19.647Z,20.20
2017-12-21T10:21:47.205Z,16.90
2017-12-21T10:24:15.444Z,18.17
2017-12-21T10:26:42.974Z,17.83
2017-12-21T10:29:10.618Z,24.53
2017-12-21T10:31:38.093Z,25.10
2017-12-21T10:34:05.667Z,21.90
2017-12-21T10:36:33.408Z,21.00
2017-12-21T10:39:01.948Z,23.50
2017-12-21T10:41:29.445Z,28.13
2017-12-21T10:43:56.933Z,22.93
2017-12-21T10:46:24.639Z,20.30
2017-12-21T10:48:53.544Z,25.17
2017-12-21T10:51:22.404Z,25.20
2017-12-21T10:53:49.918Z,24.20
2017-12-21T10:56:17.455Z,30.70
2017-12-21T10:58:44.927Z,29.37
2017-12-21T11:01:13.310Z,20.80
2017-12-21T11:03:41.096Z,19.73
2017-12-21T11:06:08.797Z,29.70
2017-12-21T11:08:36.309Z,23.80
2017-12-21T11:11:04.782Z,26.80
2017-12-21T11:13:33.027Z,25.50
2017-12-21T11:16:00.572Z,19.30
2017-12-21T11:18:28.077Z,18.47
2017-12-21T11:20:56.429Z,16.87
2017-12-21T11:23:24.047Z,15.03
2017-12-21T11:25:51.744Z,13.37
2017-12-21T11:28:19.213Z,15.57
2017-12-21T11:30:47.527Z,18.57
2017-12-21T11:33:15.808Z,16.53
2017-12-21T11:35:44.524Z,17.07
2017-12-21T11:38:12.319Z,19.70
2017-12-21T11:40:39.798Z,19.40
2017-12-21T11:43:07.380Z,16.87
2017-12-21T11:45:34.840Z,12.67
2017-12-21T11:48:03.179Z,14.87
2017-12-21T11:50:30.751Z,16.20
2017-12-21T11:52:58.296Z,19.37
2017-12-21T11:55:26.147Z,13.63
2017-12-21T11:57:53.655Z,12.63
2017-12-21T12:00:21.306Z,23.00
2017-12-21T12:02:49.581Z,19.50
2017-12-21T12:05:17.831Z,17.47
2017-12-21T12:07:45.380Z,21.47
2017-12-21T12:10:13.868Z,16.33
2017-12-21T12:12:44.315Z,20.50
2017-12-21T12:15:11.792Z,17.20
2017-12-21T12:17:39.662Z,20.30
2017-12-21T12:20:07.989Z,23.77
2017-12-21T12:22:35.489Z,28.67
2017-12-21T12:25:02.967Z,23.43
2017-12-21T12:27:31.235Z,26.37
2017-12-21T12:29:58.715Z,33.67
2017-12-21T12:32:26.959Z,40.40
2017-12-21T12:34:55.765Z,46.87
2017-12-21T12:37:24.526Z,39.30
2017-12-21T12:39:52.003Z,37.90
2017-12-21T12:42:19.849Z,37.30
2017-12-21T12:44:48.635Z,36.73
2017-12-21T12:47:17.400Z,34.80
2017-12-21T12:49:44.867Z,36.93
2017-12-21T12:52:12.378Z,40.17
2017-12-21T12:54:40.747Z,34.23
2017-12-21T12:57:08.689Z,32.47
2017-12-21T12:59:36.414Z,39.57
2017-12-21T13:02:03.899Z,36.77
2017-12-21T13:04:31.392Z,31.03
2017-12-21T13:06:58.891Z,38.00
2017-12-21T13:09:26.418Z,27.53
2017-12-21T13:11:53.905Z,39.80
2017-12-21T13:14:21.501Z,22.20
2017-12-21T13:16:49.004Z,20.67
2017-12-21T13:19:16.659Z,19.77
2017-12-21T13:21:44.172Z,20.50
2017-12-21T13:24:11.654Z,24.07
2017-12-21T13:26:39.191Z,22.07
2017-12-21T13:29:06.734Z,27.40
2017-12-21T13:31:34.882Z,18.03
2017-12-21T13:34:02.452Z,18.87
2017-12-21T13:36:29.915Z,18.90
2017-12-21T13:38:57.390Z,16.00
2017-12-21T13:41:24.944Z,15.53
2017-12-21T13:43:52.539Z,25.00
2017-12-21T13:46:20.580Z,21.60
2017-12-21T13:48:48.896Z,18.07
2017-12-21T13:51:16.440Z,16.47
2017-12-21T13:53:43.907Z,17.30
2017-12-21T13:56:12.065Z,15.10
2017-12-21T13:58:39.854Z,21.80
2017-12-21T14:01:07.352Z,22.07
2017-12-21T14:03:35.655Z,20.37
2017-12-21T14:06:03.161Z,19.27
2017-12-21T14:08:32.250Z,20.17
2017-12-21T14:10:59.758Z,17.90
2017-12-21T14:13:27.623Z,25.73
2017-12-21T14:15:55.982Z,35.13
2017-12-21T14:18:24.226Z,27.00
2017-12-21T14:20:51.676Z,27.80
2017-12-21T14:23:19.166Z,27.60
2017-12-21T14:25:46.725Z,37.17
2017-12-21T14:28:15.036Z,32.23
2017-12-21T14:30:42.640Z,39.63
2017-12-21T14:33:10.144Z,36.90
2017-12-21T14:35:37.645Z,37.13
2017-12-21T14:38:05.812Z,36.20
2017-12-21T14:40:33.301Z,38.80
2017-12-21T14:43:00.775Z,39.57
2017-12-21T14:45:29.034Z,45.00
2017-12-21T14:47:56.542Z,36.90
2017-12-21T14:50:24.003Z,31.10
2017-12-21T14:52:51.506Z,39.10
2017-12-21T14:55:19.007Z,46.63
2017-12-21T14:57:47.316Z,53.70
2017-12-21T15:00:14.807Z,41.17
2017-12-21T15:02:43.863Z,38.43
2017-12-21T15:05:11.346Z,48.07
2017-12-21T15:07:39.055Z,40.00
2017-12-21T15:10:07.322Z,58.77
2017-12-21T15:12:35.640Z,57.43
2017-12-21T15:15:03.583Z,63.10
2017-12-21T15:17:31.918Z,56.27
2017-12-21T15:19:59.398Z,73.90
2017-12-21T15:22:26.880Z,57.97
2017-12-21T15:24:54.392Z,66.13
2017-12-21T15:27:21.898Z,63.57
2017-12-21T15:29:49.493Z,50.47
2017-12-21T15:32:17.048Z,57.80
2017-12-21T15:34:44.530Z,47.10
2017-12-21T15:37:12.019Z,52.20
2017-12-21T15:39:40.301Z,48.97
2017-12-21T15:42:08.420Z,60.50
2017-12-21T15:44:36.594Z,53.97
2017-12-21T15:47:04.058Z,59.03
2017-12-21T15:49:31.546Z,52.03
2017-12-21T15:51:59.069Z,57.07
2017-12-21T15:54:26.552Z,53.13
2017-12-21T15:56:54.149Z,60.30
2017-12-21T15:59:22.414Z,52.47
2017-12-21T16:01:50.795Z,56.80
2017-12-21T16:04:19.068Z,60.30
2017-12-21T16:06:46.603Z,60.97
2017-12-21T16:09:14.103Z,68.77
2017-12-21T16:11:42.351Z,60.80
2017-12-21T16:14:09.855Z,68.47
2017-12-21T16:16:37.376Z,64.03
2017-12-21T16:19:04.907Z,53.00
2017-12-21T16:21:32.391Z,51.50
2017-12-21T16:23:59.880Z,62.53
2017-12-21T16:26:28.121Z,48.87
2017-12-21T16:28:56.426Z,50.83
2017-12-21T16:31:24.931Z,47.33
2017-12-21T16:33:52.426Z,45.93
2017-12-21T16:36:20.025Z,49.93
2017-12-21T16:38:47.503Z,45.17
2017-12-21T16:41:15.835Z,52.37
2017-12-21T16:43:43.324Z,41.70
2017-12-21T16:46:11.559Z,48.00
2017-12-21T16:48:39.051Z,41.27
2017-12-21T16:51:07.335Z,45.17
2017-12-21T16:53:34.887Z,44.90
2017-12-21T16:56:02.617Z,34.00
2017-12-21T16:58:30.102Z,29.40
2017-12-21T17:00:57.620Z,32.33
2017-12-21T17:03:25.144Z,36.50
2017-12-21T17:05:53.443Z,35.20
2017-12-21T17:08:20.920Z,29.30
2017-12-21T17:10:48.402Z,26.90
2017-12-21T17:13:15.872Z,33.73
2017-12-21T17:15:44.235Z,29.20
2017-12-21T17:18:11.706Z,26.57
2017-12-21T17:20:39.183Z,24.63
2017-12-21T17:23:07.948Z,23.57
2017-12-21T17:25:36.356Z,32.67
2017-12-21T17:28:04.597Z,32.13
2017-12-21T17:30:32.692Z,38.70
2017-12-21T17:33:00.182Z,26.87
2017-12-21T17:35:28.200Z,32.70
2017-12-21T17:37:55.705Z,32.07
2017-12-21T17:40:24.935Z,20.43
2017-12-21T17:42:52.442Z,37.30
2017-12-21T17:45:19.950Z,34.83
2017-12-21T17:47:47.597Z,29.80
2017-12-21T17:50:15.095Z,23.33
2017-12-21T17:52:42.628Z,32.53
2017-12-21T17:55:10.131Z,33.93
2017-12-21T17:57:38.030Z,31.07
2017-12-21T18:00:05.558Z,28.87
2017-12-21T18:02:33.038Z,31.37
2017-12-21T18:05:01.650Z,24.70
2017-12-21T18:07:29.104Z,33.07
2017-12-21T18:09:57.275Z,34.47
2017-12-21T18:12:25.892Z,33.40
2017-12-21T18:14:53.364Z,35.87
2017-12-21T18:17:20.872Z,33.13
2017-12-21T18:19:49.103Z,31.30
2017-12-21T18:22:17.189Z,36.60
2017-12-21T18:24:45.220Z,37.30
2017-12-21T18:27:13.693Z,36.43
2017-12-21T18:29:42.702Z,29.90
2017-12-21T18:32:12.047Z,36.37
2017-12-21T18:34:39.615Z,38.20
2017-12-21T18:37:07.910Z,39.07
2017-12-21T18:39:36.138Z,24.50
2017-12-21T18:42:04.526Z,33.30
2017-12-21T18:44:32.791Z,36.20
2017-12-21T18:47:00.866Z,44.00
2017-12-21T18:49:28.546Z,30.50
2017-12-21T18:51:56.256Z,32.23
2017-12-21T18:54:31.278Z,24.17
2017-12-21T18:56:59.787Z,31.30
2017-12-21T18:59:28.464Z,38.23
2017-12-21T19:01:56.075Z,36.23
2017-12-21T19:04:23.598Z,33.50
2017-12-21T19:06:51.993Z,33.67
2017-12-21T19:09:19.547Z,27.93
2017-12-21T19:11:47.123Z,31.73
2017-12-21T19:14:14.625Z,32.70
2017-12-21T19:16:42.146Z,69.50
2017-12-21T19:19:10.806Z,70.77
2017-12-21T19:21:39.259Z,42.50
2017-12-21T19:24:06.811Z,46.97
2017-12-21T19:26:35.374Z,58.43
2017-12-21T19:29:03.647Z,43.20
2017-12-21T19:31:32.047Z,58.50
2017-12-21T19:34:00.153Z,57.03
2017-12-21T19:36:27.743Z,78.77
2017-12-21T19:38:55.292Z,89.03
2017-12-21T19:41:22.862Z,66.77
2017-12-21T19:43:51.469Z,81.60
2017-12-21T19:46:20.023Z,54.97
2017-12-21T19:48:48.249Z,59.63
2017-12-21T19:51:16.511Z,46.73
2017-12-21T19:53:44.544Z,65.03
2017-12-21T19:56:12.185Z,45.77
2017-12-21T19:58:40.041Z,43.57
2017-12-21T20:01:08.407Z,39.70
2017-12-21T20:03:36.798Z,60.73
2017-12-21T20:06:05.705Z,35.20
2017-12-21T20:08:33.293Z,42.37
2017-12-21T20:11:01.979Z,41.57
2017-12-21T20:13:29.471Z,40.20
2017-12-21T20:15:57.590Z,39.50
2017-12-21T20:18:25.270Z,36.10
2017-12-21T20:20:52.919Z,39.77
2017-12-21T20:23:20.419Z,39.03
2017-12-21T20:25:48.058Z,36.10
2017-12-21T20:28:15.895Z,37.27
2017-12-21T20:30:43.407Z,33.83
2017-12-21T20:33:10.962Z,35.20
2017-12-21T20:35:38.755Z,30.53
2017-12-21T20:38:07.023Z,36.47
2017-12-21T20:40:35.068Z,26.43
2017-12-21T20:43:03.477Z,31.30
2017-12-21T20:45:30.960Z,31.63
2017-12-21T20:47:58.552Z,30.83
2017-12-21T20:50:26.805Z,21.97
2017-12-21T20:52:55.665Z,25.27
2017-12-21T20:55:24.213Z,28.50
2017-12-21T20:57:52.146Z,27.43
2017-12-21T21:00:21.810Z,24.47
2017-12-21T21:02:49.348Z,19.90
2017-12-21T21:05:16.846Z,28.13
2017-12-21T21:07:44.324Z,23.83
2017-12-21T21:10:12.594Z,25.70
2017-12-21T21:12:40.843Z,25.07
2017-12-21T21:15:08.854Z,29.67
2017-12-21T21:17:36.540Z,20.50
2017-12-21T21:22:41.649Z,18.57
2017-12-21T21:25:09.188Z,30.43
2017-12-21T21:27:36.682Z,20.40
2017-12-21T21:30:04.606Z,22.03
2017-12-21T21:32:32.827Z,19.77
2017-12-21T21:35:01.084Z,18.97
2017-12-21T21:37:28.554Z,13.87
2017-12-21T21:39:56.198Z,15.73
2017-12-21T21:42:24.514Z,19.50
2017-12-21T21:44:52.013Z,12.37
2017-12-21T21:47:19.726Z,14.90
2017-12-21T21:49:47.325Z,12.67
2017-12-21T21:52:14.815Z,14.77
2017-12-21T21:54:42.308Z,11.50
2017-12-21T21:57:10.597Z,12.83
2017-12-21T21:59:38.082Z,7.67
2017-12-21T22:02:05.595Z,9.87
2017-12-21T22:04:33.856Z,9.33
2017-12-21T22:07:01.314Z,9.53
2017-12-21T22:09:28.796Z,10.83
2017-12-21T22:11:56.319Z,8.27
2017-12-21T22:14:23.778Z,8.80
2017-12-21T22:16:51.315Z,11.03
2017-12-21T22:19:18.801Z,10.57
2017-12-21T22:21:47.274Z,9.87
2017-12-21T22:24:15.054Z,12.70
2017-12-21T22:26:42.772Z,10.90
2017-12-21T22:29:10.266Z,12.23
2017-12-21T22:31:37.745Z,10.47
2017-12-21T22:34:05.980Z,7.37
2017-12-21T22:36:33.467Z,7.93
2017-12-21T22:39:00.944Z,10.73
2017-12-21T22:41:29.183Z,9.20
2017-12-21T22:43:56.699Z,9.03
2017-12-21T22:46:24.195Z,15.23
2017-12-21T22:48:51.746Z,10.77
2017-12-21T22:51:19.213Z,7.33
2017-12-21T22:53:46.784Z,12.67
2017-12-21T22:56:14.302Z,10.93
2017-12-21T22:58:41.779Z,16.23
2017-12-21T23:01:09.246Z,13.00
2017-12-21T23:03:37.524Z,11.57
2017-12-21T23:06:05.002Z,9.07
2017-12-21T23:08:33.318Z,11.77
2017-12-21T23:11:01.550Z,10.27
2017-12-21T23:13:29.014Z,12.30
2017-12-21T23:15:56.470Z,13.70
2017-12-21T23:18:23.955Z,12.30
2017-12-21T23:20:52.259Z,9.77
2017-12-21T23:23:20.553Z,13.97
2017-12-21T23:25:48.065Z,14.73
2017-12-21T23:28:15.581Z,11.27
2017-12-21T23:30:43.030Z,15.63
2017-12-21T23:33:10.590Z,20.43
2017-12-21T23:35:38.041Z,14.47
2017-12-21T23:38:05.519Z,12.40
2017-12-21T23:40:32.986Z,17.20
2017-12-21T23:43:00.478Z,11.33
2017-12-21T23:45:27.963Z,10.30
2017-12-21T23:47:55.451Z,9.00
2017-12-21T23:50:22.906Z,10.40
2017-12-21T23:52:50.563Z,10.37
2017-12-21T23:55:18.062Z,12.07
2017-12-21T23:57:46.048Z,10.07
